sensor_id;sensor_type;location;lat;lon;timestamp;pressure;altitude;pressure_sealevel;temperature;humidity
68230;BME280;55048;52.220;5.160;2023-01-31T00:01:28;102357.16;;;5.17;78.47
68230;BME280;55048;52.220;5.160;2023-01-31T00:03:58;102368.53;;;5.18;78.28
68230;BME280;55048;52.220;5.160;2023-01-31T00:06:27;102242.34;;;4.31;78.75
68230;BME280;55048;52.220;5.160;2023-01-31T00:08:54;102337.03;;;5.00;78.70
68230;BME280;55048;52.220;5.160;2023-01-31T00:11:21;102277.31;;;4.66;78.76
68230;BME280;55048;52.220;5.160;2023-01-31T00:13:47;102240.56;;;4.40;78.78
68230;BME280;55048;52.220;5.160;2023-01-31T00:16:14;102352.34;;;5.12;78.88
68230;BME280;55048;52.220;5.160;2023-01-31T00:18:40;102253.91;;;4.39;80.40
68230;BME280;55048;52.220;5.160;2023-01-31T00:21:13;102339.97;;;4.89;80.91
68230;BME280;55048;52.220;5.160;2023-01-31T00:23:40;102242.19;;;4.41;80.29
68230;BME280;55048;52.220;5.160;2023-01-31T00:26:07;102280.47;;;4.70;80.63
68230;BME280;55048;52.220;5.160;2023-01-31T00:28:33;102271.22;;;4.49;80.12
68230;BME280;55048;52.220;5.160;2023-01-31T00:30:58;102202.97;;;4.22;80.67
68230;BME280;55048;52.220;5.160;2023-01-31T00:33:24;102264.16;;;4.58;80.73
68230;BME280;55048;52.220;5.160;2023-01-31T00:35:49;102287.03;;;4.66;81.21
68230;BME280;55048;52.220;5.160;2023-01-31T00:38:14;102287.72;;;4.84;80.65
68230;BME280;55048;52.220;5.160;2023-01-31T00:40:39;102226.59;;;4.48;80.51
68230;BME280;55048;52.220;5.160;2023-01-31T00:43:06;102200.84;;;4.25;80.55
68230;BME280;55048;52.220;5.160;2023-01-31T00:45:32;102205.81;;;4.37;80.65
68230;BME280;55048;52.220;5.160;2023-01-31T00:47:57;102267.16;;;4.71;80.73
68230;BME280;55048;52.220;5.160;2023-01-31T00:50:22;102203.16;;;4.28;80.65
68230;BME280;55048;52.220;5.160;2023-01-31T00:52:48;102202.69;;;4.41;81.01
68230;BME280;55048;52.220;5.160;2023-01-31T00:55:14;102196.06;;;4.29;80.60
68230;BME280;55048;52.220;5.160;2023-01-31T00:57:39;102245.03;;;4.64;80.31
68230;BME280;55048;52.220;5.160;2023-01-31T01:00:05;102261.50;;;4.50;82.56
68230;BME280;55048;52.220;5.160;2023-01-31T01:02:31;102263.81;;;4.61;81.37
68230;BME280;55048;52.220;5.160;2023-01-31T01:04:56;102170.53;;;4.13;81.86
68230;BME280;55048;52.220;5.160;2023-01-31T01:07:22;102100.34;;;3.71;81.39
68230;BME280;55048;52.220;5.160;2023-01-31T01:09:47;102227.22;;;4.42;81.74
68230;BME280;55048;52.220;5.160;2023-01-31T01:12:13;102112.03;;;3.69;81.20
68230;BME280;55048;52.220;5.160;2023-01-31T01:14:38;102147.16;;;4.02;81.26
68230;BME280;55048;52.220;5.160;2023-01-31T01:17:03;102219.19;;;4.43;81.15
68230;BME280;55048;52.220;5.160;2023-01-31T01:19:31;102266.47;;;4.69;81.10
68230;BME280;55048;52.220;5.160;2023-01-31T01:21:56;102166.44;;;4.11;80.69
68230;BME280;55048;52.220;5.160;2023-01-31T01:24:22;102210.56;;;4.33;80.79
68230;BME280;55048;52.220;5.160;2023-01-31T01:26:47;102222.28;;;4.47;81.02
68230;BME280;55048;52.220;5.160;2023-01-31T01:29:13;102201.84;;;4.32;80.96
68230;BME280;55048;52.220;5.160;2023-01-31T01:31:38;102254.91;;;4.54;81.78
68230;BME280;55048;52.220;5.160;2023-01-31T01:34:07;102276.34;;;4.67;81.12
68230;BME280;55048;52.220;5.160;2023-01-31T01:36:35;102253.13;;;4.63;80.84
68230;BME280;55048;52.220;5.160;2023-01-31T01:39:01;102129.63;;;3.76;80.82
68230;BME280;55048;52.220;5.160;2023-01-31T01:41:29;102223.75;;;4.41;80.68
68230;BME280;55048;52.220;5.160;2023-01-31T01:43:57;102265.66;;;4.69;80.87
68230;BME280;55048;52.220;5.160;2023-01-31T01:46:29;102271.91;;;4.68;80.99
68230;BME280;55048;52.220;5.160;2023-01-31T01:51:39;102185.50;;;4.13;80.79
68230;BME280;55048;52.220;5.160;2023-01-31T01:54:09;102304.19;;;4.70;81.02
68230;BME280;55048;52.220;5.160;2023-01-31T01:56:38;102190.31;;;4.17;81.40
68230;BME280;55048;52.220;5.160;2023-01-31T01:59:19;102216.81;;;4.32;81.50
68230;BME280;55048;52.220;5.160;2023-01-31T02:01:46;102240.72;;;4.47;81.76
68230;BME280;55048;52.220;5.160;2023-01-31T02:04:17;102230.88;;;4.49;81.65
68230;BME280;55048;52.220;5.160;2023-01-31T02:06:45;102226.59;;;4.56;81.74
68230;BME280;55048;52.220;5.160;2023-01-31T02:09:17;102260.22;;;4.78;82.10
68230;BME280;55048;52.220;5.160;2023-01-31T02:11:44;102252.63;;;4.67;82.04
68230;BME280;55048;52.220;5.160;2023-01-31T02:14:10;102193.31;;;4.39;82.10
68230;BME280;55048;52.220;5.160;2023-01-31T02:16:36;102212.44;;;4.57;82.16
68230;BME280;55048;52.220;5.160;2023-01-31T02:19:05;102258.72;;;4.84;82.47
68230;BME280;55048;52.220;5.160;2023-01-31T02:33:34;102250.69;;;5.02;83.84
68230;BME280;55048;52.220;5.160;2023-01-31T02:36:10;102254.81;;;5.04;83.87
68230;BME280;55048;52.220;5.160;2023-01-31T02:44:30;102208.00;;;4.90;83.90
68230;BME280;55048;52.220;5.160;2023-01-31T02:50:32;102231.06;;;5.12;84.80
68230;BME280;55048;52.220;5.160;2023-01-31T02:53:15;102196.16;;;4.86;85.35
68230;BME280;55048;52.220;5.160;2023-01-31T02:55:58;102193.00;;;4.82;87.64
68230;BME280;55048;52.220;5.160;2023-01-31T03:01:44;102163.88;;;4.68;86.44
68230;BME280;55048;52.220;5.160;2023-01-31T03:04:12;102196.31;;;5.01;87.33
68230;BME280;55048;52.220;5.160;2023-01-31T03:20:34;102151.16;;;4.88;88.62
68230;BME280;55048;52.220;5.160;2023-01-31T03:23:09;102205.81;;;5.26;88.80
68230;BME280;55048;52.220;5.160;2023-01-31T03:25:37;102115.94;;;4.64;88.93
68230;BME280;55048;52.220;5.160;2023-01-31T03:28:10;102160.06;;;4.95;89.77
68230;BME280;55048;52.220;5.160;2023-01-31T03:30:46;102213.22;;;5.39;89.39
68230;BME280;55048;52.220;5.160;2023-01-31T03:33:19;102203.34;;;5.41;89.81
68230;BME280;55048;52.220;5.160;2023-01-31T03:35:52;102158.88;;;5.05;90.46
68230;BME280;55048;52.220;5.160;2023-01-31T03:38:27;102062.41;;;4.72;89.87
68230;BME280;55048;52.220;5.160;2023-01-31T03:41:09;102173.44;;;5.49;90.27
68230;BME280;55048;52.220;5.160;2023-01-31T03:43:45;102172.63;;;5.48;91.41
68230;BME280;55048;52.220;5.160;2023-01-31T03:46:18;102183.81;;;5.58;90.83
68230;BME280;55048;52.220;5.160;2023-01-31T03:48:49;102174.38;;;5.64;90.66
68230;BME280;55048;52.220;5.160;2023-01-31T03:51:18;102172.59;;;5.56;91.12
68230;BME280;55048;52.220;5.160;2023-01-31T03:56:30;102176.69;;;5.67;91.50
68230;BME280;55048;52.220;5.160;2023-01-31T03:59:01;102074.03;;;5.02;91.20
68230;BME280;55048;52.220;5.160;2023-01-31T04:01:31;102135.41;;;5.35;91.79
68230;BME280;55048;52.220;5.160;2023-01-31T04:04:37;102130.28;;;5.42;91.66
68230;BME280;55048;52.220;5.160;2023-01-31T04:07:01;102123.53;;;5.39;92.54
68230;BME280;55048;52.220;5.160;2023-01-31T04:09:28;102052.31;;;4.92;92.18
68230;BME280;55048;52.220;5.160;2023-01-31T04:11:58;102173.41;;;5.65;93.13
68230;BME280;55048;52.220;5.160;2023-01-31T04:14:24;102072.16;;;5.19;92.27
68230;BME280;55048;52.220;5.160;2023-01-31T04:16:50;102086.47;;;5.24;92.23
68230;BME280;55048;52.220;5.160;2023-01-31T04:19:15;102132.22;;;5.56;92.96
68230;BME280;55048;52.220;5.160;2023-01-31T04:21:40;101891.31;;;4.06;92.55
68230;BME280;55048;52.220;5.160;2023-01-31T04:24:06;102078.06;;;5.29;92.54
68230;BME280;55048;52.220;5.160;2023-01-31T04:26:33;102134.28;;;5.69;92.44
68230;BME280;55048;52.220;5.160;2023-01-31T04:28:59;102154.84;;;5.81;92.82
68230;BME280;55048;52.220;5.160;2023-01-31T04:31:24;102038.38;;;5.22;92.36
68230;BME280;55048;52.220;5.160;2023-01-31T04:33:50;101915.75;;;4.48;92.06
68230;BME280;55048;52.220;5.160;2023-01-31T04:36:15;101935.63;;;4.58;92.76
68230;BME280;55048;52.220;5.160;2023-01-31T04:38:40;102067.28;;;5.47;93.61
68230;BME280;55048;52.220;5.160;2023-01-31T04:41:06;102060.72;;;5.34;92.74
68230;BME280;55048;52.220;5.160;2023-01-31T04:43:32;101791.22;;;3.67;92.36
68230;BME280;55048;52.220;5.160;2023-01-31T04:45:57;102083.22;;;5.53;92.55
68230;BME280;55048;52.220;5.160;2023-01-31T04:48:22;102047.00;;;5.39;92.25
68230;BME280;55048;52.220;5.160;2023-01-31T04:50:48;102082.69;;;5.58;92.75
68230;BME280;55048;52.220;5.160;2023-01-31T04:53:13;102136.31;;;5.98;92.26
68230;BME280;55048;52.220;5.160;2023-01-31T04:55:39;102042.44;;;5.33;91.76
68230;BME280;55048;52.220;5.160;2023-01-31T04:58:04;102130.56;;;5.94;92.25
68230;BME280;55048;52.220;5.160;2023-01-31T05:00:30;101980.63;;;4.88;92.00
68230;BME280;55048;52.220;5.160;2023-01-31T05:02:55;101851.78;;;4.15;91.67
68230;BME280;55048;52.220;5.160;2023-01-31T05:05:21;101605.56;;;2.53;92.10
68230;BME280;55048;52.220;5.160;2023-01-31T05:07:46;101956.44;;;4.84;91.79
68230;BME280;55048;52.220;5.160;2023-01-31T05:10:12;102121.44;;;5.97;91.38
68230;BME280;55048;52.220;5.160;2023-01-31T05:12:38;101726.38;;;3.19;91.35
68230;BME280;55048;52.220;5.160;2023-01-31T05:15:04;102022.78;;;5.35;91.64
68230;BME280;55048;52.220;5.160;2023-01-31T05:17:32;102096.63;;;5.83;91.31
68230;BME280;55048;52.220;5.160;2023-01-31T05:19:58;101999.88;;;5.05;91.20
68230;BME280;55048;52.220;5.160;2023-01-31T05:22:25;101816.31;;;4.02;91.35
68230;BME280;55048;52.220;5.160;2023-01-31T05:24:51;102145.38;;;6.03;91.51
68230;BME280;55048;52.220;5.160;2023-01-31T05:27:17;102101.69;;;5.93;91.75
68230;BME280;55048;52.220;5.160;2023-01-31T05:29:43;102099.16;;;5.99;91.57
68230;BME280;55048;52.220;5.160;2023-01-31T05:32:09;102146.00;;;6.05;91.54
68230;BME280;55048;52.220;5.160;2023-01-31T05:34:34;102081.34;;;5.70;91.97
68230;BME280;55048;52.220;5.160;2023-01-31T05:37:01;101637.84;;;3.11;91.35
68230;BME280;55048;52.220;5.160;2023-01-31T05:39:27;101793.25;;;4.13;90.84
68230;BME280;55048;52.220;5.160;2023-01-31T05:41:53;101658.03;;;3.19;90.94
68230;BME280;55048;52.220;5.160;2023-01-31T05:44:19;101809.25;;;3.95;90.97
68230;BME280;55048;52.220;5.160;2023-01-31T05:46:44;102123.28;;;5.96;91.42
68230;BME280;55048;52.220;5.160;2023-01-31T05:49:10;101723.81;;;3.58;90.74
68230;BME280;55048;52.220;5.160;2023-01-31T05:51:36;101702.72;;;3.27;90.93
68230;BME280;55048;52.220;5.160;2023-01-31T05:54:02;101953.03;;;4.76;92.02
68230;BME280;55048;52.220;5.160;2023-01-31T05:56:28;102121.31;;;5.98;91.39
68230;BME280;55048;52.220;5.160;2023-01-31T05:58:53;102026.22;;;5.44;91.33
68230;BME280;55048;52.220;5.160;2023-01-31T06:01:21;101937.03;;;4.77;90.97
68230;BME280;55048;52.220;5.160;2023-01-31T06:03:47;102119.59;;;6.05;91.33
68230;BME280;55048;52.220;5.160;2023-01-31T06:06:12;102040.09;;;5.69;91.42
68230;BME280;55048;52.220;5.160;2023-01-31T06:08:38;101878.47;;;4.67;91.73
68230;BME280;55048;52.220;5.160;2023-01-31T06:11:04;102061.09;;;5.85;91.26
68230;BME280;55048;52.220;5.160;2023-01-31T06:13:31;101745.97;;;3.88;91.16
68230;BME280;55048;52.220;5.160;2023-01-31T06:15:56;101987.56;;;5.28;91.53
68230;BME280;55048;52.220;5.160;2023-01-31T06:18:22;101711.84;;;3.55;91.47
68230;BME280;55048;52.220;5.160;2023-01-31T06:20:48;102081.56;;;5.92;91.64
68230;BME280;55048;52.220;5.160;2023-01-31T06:23:13;102077.25;;;5.91;91.65
68230;BME280;55048;52.220;5.160;2023-01-31T06:25:38;101897.63;;;4.84;91.70
68230;BME280;55048;52.220;5.160;2023-01-31T06:28:04;102000.72;;;5.59;92.11
68230;BME280;55048;52.220;5.160;2023-01-31T06:30:30;101991.34;;;5.57;92.25
68230;BME280;55048;52.220;5.160;2023-01-31T06:32:58;102072.88;;;6.06;92.66
68230;BME280;55048;52.220;5.160;2023-01-31T06:35:24;101799.72;;;4.33;92.50
68230;BME280;55048;52.220;5.160;2023-01-31T06:37:49;102061.78;;;6.10;93.01
68230;BME280;55048;52.220;5.160;2023-01-31T06:40:14;101835.81;;;4.64;92.49
68230;BME280;55048;52.220;5.160;2023-01-31T06:42:40;102055.31;;;5.90;92.62
68230;BME280;55048;52.220;5.160;2023-01-31T06:45:06;102041.88;;;6.00;93.57
68230;BME280;55048;52.220;5.160;2023-01-31T06:47:31;102047.31;;;6.06;93.01
68230;BME280;55048;52.220;5.160;2023-01-31T06:49:57;101955.94;;;5.51;92.67
68230;BME280;55048;52.220;5.160;2023-01-31T06:52:23;102006.75;;;5.68;92.79
68230;BME280;55048;52.220;5.160;2023-01-31T06:54:48;102018.41;;;6.05;92.76
68230;BME280;55048;52.220;5.160;2023-01-31T06:57:13;102047.63;;;6.26;92.98
68230;BME280;55048;52.220;5.160;2023-01-31T06:59:39;101964.66;;;5.75;92.61
68230;BME280;55048;52.220;5.160;2023-01-31T07:02:05;102005.06;;;6.06;92.47
68230;BME280;55048;52.220;5.160;2023-01-31T07:04:30;101983.78;;;6.00;92.40
68230;BME280;55048;52.220;5.160;2023-01-31T07:06:55;101930.06;;;5.70;92.34
68230;BME280;55048;52.220;5.160;2023-01-31T07:09:21;102024.34;;;6.30;92.91
68230;BME280;55048;52.220;5.160;2023-01-31T07:11:47;102040.53;;;6.27;92.31
68230;BME280;55048;52.220;5.160;2023-01-31T07:14:13;101978.09;;;5.88;92.25
68230;BME280;55048;52.220;5.160;2023-01-31T07:16:38;102035.78;;;6.22;92.04
68230;BME280;55048;52.220;5.160;2023-01-31T07:19:04;102017.75;;;6.26;92.12
68230;BME280;55048;52.220;5.160;2023-01-31T07:21:29;102007.06;;;6.19;91.98
68230;BME280;55048;52.220;5.160;2023-01-31T07:23:55;101858.56;;;5.42;91.56
68230;BME280;55048;52.220;5.160;2023-01-31T07:26:20;102018.34;;;6.51;92.29
68230;BME280;55048;52.220;5.160;2023-01-31T07:28:46;101804.00;;;4.96;92.16
68230;BME280;55048;52.220;5.160;2023-01-31T07:31:13;101905.50;;;5.69;93.05
68230;BME280;55048;52.220;5.160;2023-01-31T07:33:39;101999.81;;;6.36;91.91
68230;BME280;55048;52.220;5.160;2023-01-31T07:36:06;102028.28;;;6.63;91.88
68230;BME280;55048;52.220;5.160;2023-01-31T07:38:32;102035.84;;;6.52;92.59
68230;BME280;55048;52.220;5.160;2023-01-31T07:40:59;101841.66;;;5.51;92.01
68230;BME280;55048;52.220;5.160;2023-01-31T07:43:25;102018.63;;;6.71;91.88
68230;BME280;55048;52.220;5.160;2023-01-31T07:45:52;101862.50;;;5.60;91.72
68230;BME280;55048;52.220;5.160;2023-01-31T07:48:17;102006.16;;;6.64;92.12
68230;BME280;55048;52.220;5.160;2023-01-31T07:50:52;101911.88;;;6.12;92.04
68230;BME280;55048;52.220;5.160;2023-01-31T07:53:18;101947.00;;;6.51;91.75
68230;BME280;55048;52.220;5.160;2023-01-31T07:55:44;101993.94;;;6.78;91.88
68230;BME280;55048;52.220;5.160;2023-01-31T07:58:15;101939.25;;;6.49;91.58
68230;BME280;55048;52.220;5.160;2023-01-31T08:00:41;101967.66;;;6.62;91.79
68230;BME280;55048;52.220;5.160;2023-01-31T08:03:28;101904.25;;;6.32;91.26
68230;BME280;55048;52.220;5.160;2023-01-31T08:05:56;101850.56;;;5.87;91.59
68230;BME280;55048;52.220;5.160;2023-01-31T08:08:29;101981.34;;;6.80;91.21
68230;BME280;55048;52.220;5.160;2023-01-31T08:11:27;101923.47;;;6.41;91.35
68230;BME280;55048;52.220;5.160;2023-01-31T08:13:52;101695.22;;;5.17;90.58
68230;BME280;55048;52.220;5.160;2023-01-31T08:16:19;101885.66;;;6.41;90.93
68230;BME280;55048;52.220;5.160;2023-01-31T08:18:46;101677.00;;;5.07;90.32
68230;BME280;55048;52.220;5.160;2023-01-31T08:21:24;101959.19;;;6.81;90.83
68230;BME280;55048;52.220;5.160;2023-01-31T08:23:52;101504.34;;;3.92;90.36
68230;BME280;55048;52.220;5.160;2023-01-31T08:29:12;101801.00;;;5.60;89.94
68230;BME280;55048;52.220;5.160;2023-01-31T08:32:17;101561.75;;;4.11;89.59
68230;BME280;55048;52.220;5.160;2023-01-31T08:34:50;101519.41;;;4.21;89.24
68230;BME280;55048;52.220;5.160;2023-01-31T08:38:46;101554.13;;;4.39;89.50
68230;BME280;55048;52.220;5.160;2023-01-31T08:41:41;101451.47;;;3.55;89.14
68230;BME280;55048;52.220;5.160;2023-01-31T08:44:12;101562.97;;;4.23;89.22
68230;BME280;55048;52.220;5.160;2023-01-31T08:46:57;101708.25;;;5.33;89.00
68230;BME280;55048;52.220;5.160;2023-01-31T08:49:57;101732.47;;;5.67;89.16
68230;BME280;55048;52.220;5.160;2023-01-31T08:52:29;101958.44;;;7.02;88.86
68230;BME280;55048;52.220;5.160;2023-01-31T08:58:08;101542.09;;;4.22;88.64
68230;BME280;55048;52.220;5.160;2023-01-31T09:00:49;101813.59;;;5.87;89.23
68230;BME280;55048;52.220;5.160;2023-01-31T09:03:40;101951.78;;;7.06;89.06
68230;BME280;55048;52.220;5.160;2023-01-31T09:06:15;101702.91;;;5.42;88.57
68230;BME280;55048;52.220;5.160;2023-01-31T09:08:48;101997.00;;;7.11;88.82
68230;BME280;55048;52.220;5.160;2023-01-31T09:14:07;101780.72;;;6.20;88.64
68230;BME280;55048;52.220;5.160;2023-01-31T09:19:34;101944.25;;;7.25;88.35
68230;BME280;55048;52.220;5.160;2023-01-31T09:22:41;101756.53;;;6.16;88.33
68230;BME280;55048;52.220;5.160;2023-01-31T09:25:10;101929.00;;;7.27;88.15
68230;BME280;55048;52.220;5.160;2023-01-31T09:27:59;101925.38;;;7.28;88.47
68230;BME280;55048;52.220;5.160;2023-01-31T09:30:27;101528.81;;;4.53;88.45
68230;BME280;55048;52.220;5.160;2023-01-31T09:36:08;101407.88;;;4.14;88.14
68230;BME280;55048;52.220;5.160;2023-01-31T09:38:37;101623.66;;;5.50;88.24
68230;BME280;55048;52.220;5.160;2023-01-31T09:41:08;101837.00;;;6.86;87.78
68230;BME280;55048;52.220;5.160;2023-01-31T09:47:16;101678.78;;;5.74;88.18
68230;BME280;55048;52.220;5.160;2023-01-31T09:52:49;101699.69;;;5.91;88.17
68230;BME280;55048;52.220;5.160;2023-01-31T10:10:05;101663.13;;;5.73;88.59
68230;BME280;55048;52.220;5.160;2023-01-31T10:12:50;101730.94;;;6.53;87.98
68230;BME280;55048;52.220;5.160;2023-01-31T10:25:36;101906.63;;;7.72;88.45
68230;BME280;55048;52.220;5.160;2023-01-31T10:28:10;101888.84;;;7.66;88.58
68230;BME280;55048;52.220;5.160;2023-01-31T10:33:30;101847.00;;;7.55;88.48
68230;BME280;55048;52.220;5.160;2023-01-31T10:36:02;101888.41;;;7.84;88.40
68230;BME280;55048;52.220;5.160;2023-01-31T10:38:33;101799.53;;;7.47;88.23
68230;BME280;55048;52.220;5.160;2023-01-31T10:41:10;101890.53;;;8.02;88.72
68230;BME280;55048;52.220;5.160;2023-01-31T10:43:46;101904.91;;;8.14;88.69
68230;BME280;55048;52.220;5.160;2023-01-31T10:46:14;101837.56;;;7.74;89.16
68230;BME280;55048;52.220;5.160;2023-01-31T10:48:41;101902.25;;;8.14;89.51
68230;BME280;55048;52.220;5.160;2023-01-31T10:54:28;101846.03;;;7.84;90.08
68230;BME280;55048;52.220;5.160;2023-01-31T10:56:59;101892.22;;;8.09;90.74
68230;BME280;55048;52.220;5.160;2023-01-31T10:59:38;101910.84;;;8.16;91.39
68230;BME280;55048;52.220;5.160;2023-01-31T11:02:24;101881.06;;;7.86;91.89
68230;BME280;55048;52.220;5.160;2023-01-31T11:04:53;101793.00;;;7.21;92.33
68230;BME280;55048;52.220;5.160;2023-01-31T11:07:20;101918.19;;;7.92;94.18
68230;BME280;55048;52.220;5.160;2023-01-31T11:09:48;101896.38;;;7.90;93.44
68230;BME280;55048;52.220;5.160;2023-01-31T11:12:16;101917.09;;;8.08;93.27
68230;BME280;55048;52.220;5.160;2023-01-31T11:14:42;101859.78;;;7.73;93.15
68230;BME280;55048;52.220;5.160;2023-01-31T11:17:14;101919.38;;;8.11;93.68
68230;BME280;55048;52.220;5.160;2023-01-31T11:19:46;101913.63;;;8.08;93.37
68230;BME280;55048;52.220;5.160;2023-01-31T11:22:25;101873.56;;;7.89;93.46
68230;BME280;55048;52.220;5.160;2023-01-31T11:24:52;101918.97;;;8.14;93.21
68230;BME280;55048;52.220;5.160;2023-01-31T11:30:00;101812.09;;;7.66;92.57
68230;BME280;55048;52.220;5.160;2023-01-31T11:32:30;101900.50;;;8.28;92.69
68230;BME280;55048;52.220;5.160;2023-01-31T11:37:54;101903.00;;;8.36;91.63
68230;BME280;55048;52.220;5.160;2023-01-31T11:40:35;101894.66;;;8.39;91.25
68230;BME280;55048;52.220;5.160;2023-01-31T11:43:22;101892.66;;;8.41;90.92
68230;BME280;55048;52.220;5.160;2023-01-31T11:45:59;101891.63;;;8.42;90.70
68230;BME280;55048;52.220;5.160;2023-01-31T11:48:39;101879.63;;;8.39;90.25
68230;BME280;55048;52.220;5.160;2023-01-31T11:51:05;101890.91;;;8.55;90.01
68230;BME280;55048;52.220;5.160;2023-01-31T11:53:37;101847.97;;;8.38;89.43
68230;BME280;55048;52.220;5.160;2023-01-31T11:58:41;101857.81;;;8.44;89.24
68230;BME280;55048;52.220;5.160;2023-01-31T12:01:18;101846.97;;;8.39;89.21
68230;BME280;55048;52.220;5.160;2023-01-31T12:03:53;101814.28;;;8.32;88.83
68230;BME280;55048;52.220;5.160;2023-01-31T12:06:37;101855.91;;;8.79;88.10
68230;BME280;55048;52.220;5.160;2023-01-31T12:09:21;101853.19;;;8.66;88.72
68230;BME280;55048;52.220;5.160;2023-01-31T12:14:21;101766.03;;;8.36;87.73
68230;BME280;55048;52.220;5.160;2023-01-31T12:16:47;101808.91;;;8.60;87.53
68230;BME280;55048;52.220;5.160;2023-01-31T12:30:23;101839.88;;;9.14;87.22
68230;BME280;55048;52.220;5.160;2023-01-31T12:35:49;101822.69;;;9.23;86.82
68230;BME280;55048;52.220;5.160;2023-01-31T12:38:28;101827.00;;;9.24;86.28
68230;BME280;55048;52.220;5.160;2023-01-31T12:42:19;101825.78;;;9.33;86.29
68230;BME280;55048;52.220;5.160;2023-01-31T12:49:40;101816.81;;;9.48;85.83
68230;BME280;55048;52.220;5.160;2023-01-31T12:52:23;101820.06;;;9.56;85.08
68230;BME280;55048;52.220;5.160;2023-01-31T12:55:18;101802.91;;;9.26;84.97
68230;BME280;55048;52.220;5.160;2023-01-31T12:58:18;101814.56;;;9.44;85.23
68230;BME280;55048;52.220;5.160;2023-01-31T13:01:12;101653.84;;;8.36;85.33
68230;BME280;55048;52.220;5.160;2023-01-31T13:06:43;101766.16;;;9.23;85.14
68230;BME280;55048;52.220;5.160;2023-01-31T13:09:22;101814.34;;;9.53;84.89
68230;BME280;55048;52.220;5.160;2023-01-31T13:14:30;101635.69;;;8.33;84.67
68230;BME280;55048;52.220;5.160;2023-01-31T13:17:03;101770.66;;;9.22;84.74
68230;BME280;55048;52.220;5.160;2023-01-31T13:19:49;101808.22;;;9.59;85.23
68230;BME280;55048;52.220;5.160;2023-01-31T13:25:23;101808.81;;;9.67;84.34
68230;BME280;55048;52.220;5.160;2023-01-31T13:28:04;101788.16;;;9.69;84.16
68230;BME280;55048;52.220;5.160;2023-01-31T13:30:42;101816.75;;;9.74;84.26
68230;BME280;55048;52.220;5.160;2023-01-31T13:36:02;101815.13;;;9.86;83.66
68230;BME280;55048;52.220;5.160;2023-01-31T13:38:36;101775.53;;;9.58;83.42
68230;BME280;55048;52.220;5.160;2023-01-31T13:41:04;101776.13;;;9.60;83.17
68230;BME280;55048;52.220;5.160;2023-01-31T13:43:32;101719.63;;;9.20;83.22
68230;BME280;55048;52.220;5.160;2023-01-31T13:46:02;101804.31;;;9.68;82.95
68230;BME280;55048;52.220;5.160;2023-01-31T13:48:34;101827.00;;;9.77;83.40
68230;BME280;55048;52.220;5.160;2023-01-31T13:51:24;101772.25;;;9.50;82.97
68230;BME280;55048;52.220;5.160;2023-01-31T13:56:32;101805.97;;;9.62;82.81
68230;BME280;55048;52.220;5.160;2023-01-31T13:58:59;101782.47;;;9.53;83.11
68230;BME280;55048;52.220;5.160;2023-01-31T14:01:27;101845.38;;;9.85;82.67
68230;BME280;55048;52.220;5.160;2023-01-31T14:09:28;101822.69;;;9.83;81.08
68230;BME280;55048;52.220;5.160;2023-01-31T14:11:59;101770.84;;;9.40;80.82
68230;BME280;55048;52.220;5.160;2023-01-31T14:14:37;101819.22;;;9.82;80.57
68230;BME280;55048;52.220;5.160;2023-01-31T14:17:09;101849.88;;;9.98;79.47
68230;BME280;55048;52.220;5.160;2023-01-31T14:27:33;101872.06;;;10.23;78.82
68230;BME280;55048;52.220;5.160;2023-01-31T14:32:34;101830.25;;;9.73;79.44
68230;BME280;55048;52.220;5.160;2023-01-31T14:38:43;101878.88;;;10.26;79.49
68230;BME280;55048;52.220;5.160;2023-01-31T14:43:48;101892.13;;;10.33;79.03
68230;BME280;55048;52.220;5.160;2023-01-31T14:46:30;101891.28;;;10.39;78.02
68230;BME280;55048;52.220;5.160;2023-01-31T14:54:34;101905.22;;;10.28;77.22
68230;BME280;55048;52.220;5.160;2023-01-31T14:57:17;101874.13;;;10.15;77.15
68230;BME280;55048;52.220;5.160;2023-01-31T15:05:13;101800.63;;;9.76;76.51
68230;BME280;55048;52.220;5.160;2023-01-31T15:12:57;101852.09;;;10.01;76.89
68230;BME280;55048;52.220;5.160;2023-01-31T15:15:35;101891.31;;;10.26;76.99
68230;BME280;55048;52.220;5.160;2023-01-31T15:18:04;101896.03;;;10.10;77.38
68230;BME280;55048;52.220;5.160;2023-01-31T15:20:44;101906.69;;;10.04;77.48
68230;BME280;55048;52.220;5.160;2023-01-31T15:23:31;101886.47;;;9.76;77.29
68230;BME280;55048;52.220;5.160;2023-01-31T15:26:00;101872.97;;;9.58;77.25
68230;BME280;55048;52.220;5.160;2023-01-31T15:28:35;101858.06;;;9.57;76.75
68230;BME280;55048;52.220;5.160;2023-01-31T15:31:12;101787.19;;;9.11;76.36
68230;BME280;55048;52.220;5.160;2023-01-31T15:33:50;101926.91;;;9.71;76.27
68230;BME280;55048;52.220;5.160;2023-01-31T15:36:23;101931.19;;;9.53;75.89
68230;BME280;55048;52.220;5.160;2023-01-31T15:41:25;101936.09;;;9.69;75.77
68230;BME280;55048;52.220;5.160;2023-01-31T15:43:53;101929.78;;;9.70;75.59
68230;BME280;55048;52.220;5.160;2023-01-31T15:48:46;101876.03;;;9.35;75.40
68230;BME280;55048;52.220;5.160;2023-01-31T15:51:12;101931.59;;;9.69;75.60
68230;BME280;55048;52.220;5.160;2023-01-31T15:53:38;101899.53;;;9.44;75.56
68230;BME280;55048;52.220;5.160;2023-01-31T15:56:06;101873.16;;;9.30;76.03
68230;BME280;55048;52.220;5.160;2023-01-31T15:58:35;101906.28;;;9.47;76.17
68230;BME280;55048;52.220;5.160;2023-01-31T16:01:01;101879.50;;;9.35;76.60
68230;BME280;55048;52.220;5.160;2023-01-31T16:03:33;101929.16;;;9.61;76.51
68230;BME280;55048;52.220;5.160;2023-01-31T16:05:59;101904.16;;;9.23;76.97
68230;BME280;55048;52.220;5.160;2023-01-31T16:08:36;101963.88;;;9.60;77.04
68230;BME280;55048;52.220;5.160;2023-01-31T16:11:04;101965.53;;;9.61;76.94
68230;BME280;55048;52.220;5.160;2023-01-31T16:13:33;101909.25;;;9.11;76.89
68230;BME280;55048;52.220;5.160;2023-01-31T16:15:59;101932.50;;;9.02;76.97
68230;BME280;55048;52.220;5.160;2023-01-31T16:18:25;101969.31;;;9.25;76.54
68230;BME280;55048;52.220;5.160;2023-01-31T16:20:53;101865.84;;;8.64;76.42
68230;BME280;55048;52.220;5.160;2023-01-31T16:23:31;101967.66;;;9.11;75.87